createdAt,value
2023-03-18T00:01:09.721Z,41.31
2023-03-18T00:03:38.747Z,41.39
2023-03-18T00:06:09.513Z,41.49
2023-03-18T00:08:39.457Z,41.47
2023-03-18T00:11:10.069Z,41.55
2023-03-18T00:13:38.822Z,41.48
2023-03-18T00:16:10.370Z,41.58
2023-03-18T00:18:39.259Z,41.64
2023-03-18T00:21:07.592Z,41.64
2023-03-18T00:23:35.704Z,41.71
2023-03-18T00:26:04.200Z,41.66
2023-03-18T00:28:32.755Z,41.79
2023-03-18T00:31:08.641Z,41.87
2023-03-18T00:33:40.127Z,41.92
2023-03-18T00:36:10.199Z,42.15
2023-03-18T00:38:38.506Z,42.19
2023-03-18T00:41:12.025Z,42.48
2023-03-18T00:43:49.301Z,42.43
2023-03-18T00:46:19.713Z,42.56
2023-03-18T00:48:49.929Z,42.68
2023-03-18T00:51:19.020Z,42.79
2023-03-18T00:53:48.910Z,42.94
2023-03-18T00:56:19.456Z,42.95
2023-03-18T00:58:48.023Z,43.18
2023-03-18T01:01:17.826Z,43.33
2023-03-18T01:03:46.350Z,43.30
2023-03-18T01:06:18.298Z,43.42
2023-03-18T01:08:47.845Z,43.45
2023-03-18T01:11:16.411Z,43.77
2023-03-18T01:13:44.661Z,43.78
2023-03-18T01:16:13.324Z,43.79
2023-03-18T01:18:41.805Z,43.92
2023-03-18T01:21:12.064Z,43.99
2023-03-18T01:23:48.451Z,44.21
2023-03-18T01:26:16.856Z,44.08
2023-03-18T01:28:47.254Z,44.09
2023-03-18T01:31:16.454Z,43.93
2023-03-18T01:33:46.561Z,44.13
2023-03-18T01:36:15.628Z,43.98
2023-03-18T01:38:45.160Z,44.07
2023-03-18T01:41:18.723Z,44.54
2023-03-18T01:43:47.384Z,44.95
2023-03-18T01:46:37.429Z,44.76
2023-03-18T01:49:10.315Z,45.12
2023-03-18T01:51:39.550Z,45.18
2023-03-18T01:54:09.017Z,45.38
2023-03-18T01:56:41.404Z,45.28
2023-03-18T01:59:12.230Z,45.48
2023-03-18T02:01:45.150Z,45.64
2023-03-18T02:06:43.727Z,45.56
2023-03-18T02:09:13.284Z,45.61
2023-03-18T02:11:49.971Z,45.64
2023-03-18T02:14:25.264Z,45.75
2023-03-18T02:16:58.785Z,45.79
2023-03-18T02:19:47.766Z,45.63
2023-03-18T02:22:26.866Z,45.69
2023-03-18T02:25:12.844Z,45.51
2023-03-18T02:27:45.246Z,45.70
2023-03-18T02:30:18.873Z,45.61
2023-03-18T02:32:52.000Z,45.56
2023-03-18T02:35:20.709Z,45.68
2023-03-18T02:37:49.759Z,45.93
2023-03-18T02:40:22.080Z,46.07
2023-03-18T02:42:52.983Z,45.93
2023-03-18T02:45:34.874Z,45.69
2023-03-18T02:48:12.884Z,45.93
2023-03-18T02:50:42.402Z,46.17
2023-03-18T02:53:13.478Z,46.05
2023-03-18T02:55:42.431Z,46.14
2023-03-18T02:58:12.256Z,46.43
2023-03-18T03:00:41.268Z,46.56
2023-03-18T03:03:09.584Z,46.58
2023-03-18T03:05:38.124Z,46.96
2023-03-18T03:08:06.707Z,47.11
2023-03-18T03:10:38.816Z,47.02
2023-03-18T03:13:09.753Z,47.12
2023-03-18T03:15:39.946Z,47.03
2023-03-18T03:18:08.825Z,47.10
2023-03-18T03:20:39.103Z,47.30
2023-03-18T03:23:08.832Z,47.50
2023-03-18T03:25:36.998Z,47.53
2023-03-18T03:28:05.934Z,48.16
2023-03-18T03:30:34.507Z,47.90
2023-03-18T03:33:04.121Z,47.76
2023-03-18T03:35:32.837Z,48.13
2023-03-18T03:38:00.965Z,48.29
2023-03-18T03:40:29.412Z,48.41
2023-03-18T03:42:57.784Z,48.77
2023-03-18T03:45:25.820Z,48.75
2023-03-18T03:47:55.441Z,49.05
2023-03-18T03:50:25.039Z,49.44
2023-03-18T03:52:54.252Z,49.69
2023-03-18T03:55:23.777Z,49.56
2023-03-18T03:57:53.108Z,50.18
2023-03-18T04:00:23.526Z,50.19
2023-03-18T04:02:53.374Z,49.97
2023-03-18T04:05:28.015Z,49.90
2023-03-18T04:07:59.995Z,50.43
2023-03-18T04:10:38.564Z,50.14
2023-03-18T04:13:10.272Z,50.00
2023-03-18T04:15:39.333Z,50.08
2023-03-18T04:18:16.991Z,50.08
2023-03-18T04:20:48.003Z,49.95
2023-03-18T04:23:27.928Z,50.08
2023-03-18T04:25:57.249Z,50.10
2023-03-18T04:28:25.419Z,49.96
2023-03-18T04:30:53.739Z,50.57
2023-03-18T04:33:21.840Z,50.72
2023-03-18T04:35:52.646Z,51.27
2023-03-18T04:38:21.044Z,51.26
2023-03-18T04:40:52.648Z,51.32
2023-03-18T04:43:21.179Z,51.75
2023-03-18T04:45:51.845Z,51.57
2023-03-18T04:48:20.900Z,51.31
2023-03-18T04:50:51.300Z,51.43
2023-03-18T04:53:25.585Z,51.36
2023-03-18T04:55:54.360Z,51.30
2023-03-18T04:58:27.657Z,51.12
2023-03-18T05:01:13.142Z,51.08
2023-03-18T05:03:42.240Z,50.95
2023-03-18T05:06:21.717Z,50.66
2023-03-18T05:08:58.165Z,50.82
2023-03-18T05:11:29.675Z,50.77
2023-03-18T05:14:00.991Z,50.65
2023-03-18T05:16:38.231Z,50.63
2023-03-18T05:19:06.409Z,50.67
2023-03-18T05:21:36.660Z,50.93
2023-03-18T05:24:05.775Z,51.07
2023-03-18T05:26:39.301Z,51.46
2023-03-18T05:29:09.238Z,51.54
2023-03-18T05:31:47.295Z,51.45
2023-03-18T05:34:15.544Z,51.43
2023-03-18T05:36:45.844Z,51.56
2023-03-18T05:39:14.287Z,51.50
2023-03-18T05:41:42.355Z,51.37
2023-03-18T05:44:13.377Z,51.34
2023-03-18T05:46:42.982Z,51.36
2023-03-18T05:49:31.257Z,51.45
2023-03-18T05:52:20.964Z,51.44
2023-03-18T05:54:50.772Z,51.71
2023-03-18T05:57:25.199Z,51.90
2023-03-18T05:59:59.075Z,52.01
2023-03-18T06:02:28.298Z,52.14
2023-03-18T06:04:56.627Z,52.37
2023-03-18T06:07:27.608Z,52.42
2023-03-18T06:09:55.686Z,52.70
2023-03-18T06:12:27.439Z,53.11
2023-03-18T06:14:56.069Z,53.09
2023-03-18T06:17:24.434Z,53.48
2023-03-18T06:19:52.549Z,53.65
2023-03-18T06:22:20.595Z,53.84
2023-03-18T06:24:50.116Z,53.80
2023-03-18T06:27:20.181Z,54.00
2023-03-18T06:29:54.503Z,53.88
2023-03-18T06:32:22.766Z,53.72
2023-03-18T06:34:50.818Z,53.66
2023-03-18T06:37:19.064Z,53.62
2023-03-18T06:39:49.428Z,53.86
2023-03-18T06:42:18.367Z,53.94
2023-03-18T06:44:55.290Z,53.81
2023-03-18T06:47:34.478Z,53.84
2023-03-18T06:50:03.178Z,53.90
2023-03-18T06:52:37.142Z,53.91
2023-03-18T06:55:14.990Z,54.20
2023-03-18T06:57:45.736Z,53.87
2023-03-18T07:00:18.109Z,53.80
2023-03-18T07:02:46.511Z,53.66
2023-03-18T07:05:17.149Z,53.49
2023-03-18T07:07:46.203Z,53.28
2023-03-18T07:10:20.992Z,53.23
2023-03-18T07:12:50.355Z,53.56
2023-03-18T07:15:21.676Z,53.49
2023-03-18T07:17:52.502Z,53.35
2023-03-18T07:20:22.360Z,53.34
2023-03-18T07:22:51.479Z,53.30
2023-03-18T07:25:22.848Z,53.22
2023-03-18T07:27:52.193Z,53.27
2023-03-18T07:30:21.288Z,53.36
2023-03-18T07:32:49.884Z,53.30
2023-03-18T07:35:18.163Z,53.32
2023-03-18T07:37:46.264Z,53.17
2023-03-18T07:40:14.806Z,53.09
2023-03-18T07:42:44.285Z,52.75
2023-03-18T07:45:12.625Z,52.46
2023-03-18T07:47:40.696Z,52.08
2023-03-18T07:50:10.041Z,51.98
2023-03-18T07:52:38.307Z,51.93
2023-03-18T07:55:09.123Z,51.88
2023-03-18T07:57:37.850Z,51.93
2023-03-18T08:00:10.667Z,51.80
2023-03-18T08:02:42.379Z,52.04
2023-03-18T08:05:11.428Z,51.59
2023-03-18T08:07:39.498Z,51.81
2023-03-18T08:10:09.376Z,51.72
2023-03-18T08:12:51.268Z,51.43
2023-03-18T08:15:22.467Z,50.87
2023-03-18T08:17:50.712Z,50.97
2023-03-18T08:20:19.010Z,51.21
2023-03-18T08:22:47.078Z,50.18
2023-03-18T08:25:15.814Z,49.98
2023-03-18T08:27:44.074Z,49.70
2023-03-18T08:30:13.801Z,49.52
2023-03-18T08:32:43.602Z,49.76
2023-03-18T08:35:12.706Z,47.95
2023-03-18T08:37:40.736Z,47.34
2023-03-18T08:40:09.905Z,47.03
2023-03-18T08:42:37.995Z,47.31
2023-03-18T08:45:06.997Z,47.85
2023-03-18T08:47:35.081Z,47.78
2023-03-18T08:50:05.953Z,47.72
2023-03-18T08:52:33.992Z,47.60
2023-03-18T08:55:02.351Z,47.45
2023-03-18T08:57:30.464Z,47.13
2023-03-18T08:59:58.788Z,47.18
2023-03-18T09:02:27.674Z,47.01
2023-03-18T09:04:56.137Z,46.86
2023-03-18T09:07:25.648Z,47.12
2023-03-18T09:09:54.366Z,47.17
2023-03-18T09:12:22.660Z,47.02
2023-03-18T09:14:50.700Z,46.99
2023-03-18T09:17:18.833Z,47.13
2023-03-18T09:19:47.015Z,47.20
2023-03-18T09:22:15.055Z,47.09
2023-03-18T09:24:44.443Z,46.77
2023-03-18T09:27:12.670Z,47.01
2023-03-18T09:29:40.922Z,46.87
2023-03-18T09:32:09.117Z,46.73
2023-03-18T09:34:37.599Z,46.71
2023-03-18T09:37:05.648Z,47.19
2023-03-18T09:39:33.699Z,47.01
2023-03-18T09:42:21.364Z,45.27
2023-03-18T09:44:55.241Z,42.68
2023-03-18T09:47:43.894Z,41.51
2023-03-18T09:50:22.832Z,41.02
2023-03-18T09:52:58.684Z,41.22
2023-03-18T09:55:30.332Z,42.10
2023-03-18T09:58:03.617Z,42.43
2023-03-18T10:00:36.226Z,42.52
2023-03-18T10:03:08.080Z,42.72
2023-03-18T10:05:41.350Z,43.43
2023-03-18T10:08:18.334Z,43.47
2023-03-18T10:10:47.888Z,43.78
2023-03-18T10:13:22.366Z,44.31
2023-03-18T10:15:54.441Z,44.54
2023-03-18T10:18:27.931Z,44.54
2023-03-18T10:21:11.628Z,44.77
2023-03-18T10:23:50.721Z,44.67
2023-03-18T10:26:22.344Z,44.62
2023-03-18T10:29:06.587Z,44.25
2023-03-18T10:31:46.881Z,44.08
2023-03-18T10:34:17.406Z,44.42
2023-03-18T10:36:52.142Z,44.58
2023-03-18T10:39:23.932Z,44.91
2023-03-18T10:41:54.102Z,44.49
2023-03-18T10:44:27.729Z,44.42
2023-03-18T10:47:00.638Z,44.23
2023-03-18T10:49:35.114Z,44.58
2023-03-18T10:52:08.041Z,44.04
2023-03-18T10:54:40.182Z,44.03
2023-03-18T10:57:10.612Z,43.87
2023-03-18T10:59:40.152Z,43.22
2023-03-18T11:02:19.656Z,43.47
2023-03-18T11:04:51.938Z,43.87
2023-03-18T11:07:25.894Z,43.78
2023-03-18T11:09:54.713Z,43.74
2023-03-18T11:12:27.098Z,43.69
2023-03-18T11:14:57.991Z,43.54
2023-03-18T11:17:29.367Z,43.74
2023-03-18T11:20:08.341Z,43.87
2023-03-18T11:22:38.146Z,43.81
2023-03-18T11:25:15.015Z,43.80
2023-03-18T11:27:45.896Z,43.85
2023-03-18T11:30:33.548Z,44.08
2023-03-18T11:33:06.346Z,44.70
2023-03-18T11:35:39.054Z,44.87
2023-03-18T11:38:07.996Z,44.90
2023-03-18T11:40:36.062Z,45.51
2023-03-18T11:43:15.385Z,45.25
2023-03-18T11:45:50.197Z,44.42
2023-03-18T11:48:24.244Z,44.19
2023-03-18T11:51:06.895Z,42.81
2023-03-18T11:53:47.366Z,42.67
2023-03-18T11:56:24.315Z,42.40
2023-03-18T11:59:09.996Z,41.73
2023-03-18T12:01:46.884Z,41.09
2023-03-18T12:04:39.371Z,41.59
2023-03-18T12:07:35.213Z,41.62
2023-03-18T12:10:14.819Z,41.89
2023-03-18T12:12:54.832Z,42.36
2023-03-18T12:15:34.684Z,43.00
2023-03-18T12:18:14.567Z,43.43
2023-03-18T12:20:50.680Z,41.54
2023-03-18T12:23:49.109Z,40.17
2023-03-18T12:26:27.505Z,38.06
2023-03-18T12:29:21.183Z,38.14
2023-03-18T12:32:00.721Z,36.66
2023-03-18T12:34:48.549Z,37.31
2023-03-18T12:37:31.096Z,37.63
2023-03-18T12:40:32.302Z,38.12
2023-03-18T12:43:25.277Z,38.20
2023-03-18T12:45:59.667Z,37.46
2023-03-18T12:48:43.563Z,36.44
2023-03-18T12:51:18.265Z,35.94
2023-03-18T12:53:49.372Z,35.09
2023-03-18T12:56:21.532Z,33.43
2023-03-18T12:58:53.567Z,32.84
2023-03-18T13:01:28.094Z,32.17
2023-03-18T13:03:59.831Z,31.09
2023-03-18T13:06:35.485Z,29.67
2023-03-18T13:09:12.869Z,29.35
2023-03-18T13:12:02.722Z,29.70
2023-03-18T13:14:42.748Z,30.09
2023-03-18T13:17:13.894Z,30.17
2023-03-18T13:19:43.067Z,30.59
2023-03-18T13:22:29.103Z,30.46
2023-03-18T13:25:06.787Z,31.19
2023-03-18T13:27:53.305Z,30.35
2023-03-18T13:30:30.593Z,31.08
2023-03-18T13:33:28.740Z,30.51
2023-03-18T13:36:28.701Z,30.28
2023-03-18T13:39:23.369Z,30.60
2023-03-18T13:42:26.474Z,31.67
2023-03-18T13:45:02.464Z,33.31
2023-03-18T13:47:33.393Z,34.11
2023-03-18T13:50:04.887Z,34.66
2023-03-18T13:52:42.063Z,35.31
2023-03-18T13:55:26.534Z,36.20
2023-03-18T13:58:09.335Z,37.27
2023-03-18T14:00:40.520Z,37.27
2023-03-18T14:03:30.023Z,36.81
2023-03-18T14:06:21.096Z,36.21
2023-03-18T14:08:51.852Z,36.14
2023-03-18T14:11:52.789Z,36.56
2023-03-18T14:14:54.957Z,36.18
2023-03-18T14:17:28.134Z,34.79
2023-03-18T14:19:57.379Z,34.59
2023-03-18T14:22:30.544Z,34.88
2023-03-18T14:25:21.467Z,34.94
2023-03-18T14:27:53.774Z,34.95
2023-03-18T14:30:47.976Z,35.28
2023-03-18T14:33:35.075Z,35.22
2023-03-18T14:36:09.392Z,35.46
2023-03-18T14:38:43.742Z,34.99
2023-03-18T14:41:21.103Z,34.89
2023-03-18T14:44:00.091Z,34.73
2023-03-18T14:46:34.318Z,34.96
2023-03-18T14:49:02.654Z,35.45
2023-03-18T14:51:32.860Z,35.72
2023-03-18T14:54:05.930Z,35.76
2023-03-18T14:56:40.659Z,36.24
2023-03-18T14:59:17.460Z,36.11
2023-03-18T15:01:50.713Z,35.79
2023-03-18T15:04:23.860Z,36.05
2023-03-18T15:06:53.266Z,36.54
2023-03-18T15:09:25.684Z,36.98
2023-03-18T15:11:54.583Z,37.56
2023-03-18T15:14:27.872Z,36.95
2023-03-18T15:16:57.327Z,37.14
2023-03-18T15:19:26.879Z,37.08
2023-03-18T15:21:56.430Z,37.27
2023-03-18T15:24:27.930Z,36.95
2023-03-18T15:27:01.929Z,36.80
2023-03-18T15:29:35.338Z,36.85
2023-03-18T15:32:19.852Z,36.75
2023-03-18T15:34:54.317Z,36.77
2023-03-18T15:37:40.728Z,36.83
2023-03-18T15:40:35.971Z,37.16
2023-03-18T15:43:18.157Z,36.78
2023-03-18T15:45:53.809Z,36.91
2023-03-18T15:48:26.815Z,37.37
2023-03-18T15:50:57.596Z,37.33
2023-03-18T15:53:28.448Z,36.28
2023-03-18T15:55:58.014Z,36.43
2023-03-18T15:58:28.593Z,36.70
2023-03-18T16:00:58.665Z,36.82
2023-03-18T16:03:30.661Z,36.81
2023-03-18T16:05:59.406Z,36.86
2023-03-18T16:08:27.790Z,36.91
2023-03-18T16:10:58.607Z,37.30
2023-03-18T16:13:30.302Z,37.46
2023-03-18T16:16:00.006Z,37.50
2023-03-18T16:18:28.694Z,37.59
2023-03-18T16:20:57.404Z,37.82
2023-03-18T16:23:25.742Z,37.87
2023-03-18T16:25:56.266Z,38.08
2023-03-18T16:28:26.971Z,38.21
2023-03-18T16:30:57.731Z,38.02
2023-03-18T16:33:28.026Z,38.32
2023-03-18T16:35:59.171Z,38.13
2023-03-18T16:38:28.463Z,38.25
2023-03-18T16:40:57.610Z,38.12
2023-03-18T16:43:28.649Z,38.24
2023-03-18T16:46:00.686Z,38.82
2023-03-18T16:48:30.777Z,39.14
2023-03-18T16:51:02.333Z,38.49
2023-03-18T16:53:32.210Z,38.81
2023-03-18T16:56:03.417Z,39.40
2023-03-18T16:58:35.498Z,39.44
2023-03-18T17:01:07.406Z,39.56
2023-03-18T17:03:37.916Z,39.94
2023-03-18T17:06:08.813Z,40.12
2023-03-18T17:08:37.892Z,40.49
2023-03-18T17:11:07.427Z,40.75
2023-03-18T17:13:39.064Z,40.98
2023-03-18T17:16:15.673Z,41.32
2023-03-18T17:18:45.542Z,41.52
2023-03-18T17:21:13.970Z,41.70
2023-03-18T17:23:42.907Z,42.00
2023-03-18T17:26:14.721Z,42.26
2023-03-18T17:28:47.774Z,43.74
2023-03-18T17:31:16.909Z,45.06
2023-03-18T17:33:47.408Z,45.90
2023-03-18T17:36:15.936Z,46.51
2023-03-18T17:38:44.297Z,47.00
2023-03-18T17:41:18.513Z,47.76
2023-03-18T17:43:47.410Z,48.34
2023-03-18T17:46:15.801Z,48.57
2023-03-18T17:48:44.169Z,48.80
2023-03-18T17:51:17.889Z,48.97
2023-03-18T17:53:48.076Z,50.17
2023-03-18T17:56:18.520Z,50.57
2023-03-18T17:58:48.510Z,50.75
2023-03-18T18:01:18.761Z,51.27
2023-03-18T18:03:47.948Z,51.56
2023-03-18T18:06:21.169Z,51.59
2023-03-18T18:08:50.162Z,51.82
2023-03-18T18:11:21.835Z,51.58
2023-03-18T18:13:50.991Z,51.91
2023-03-18T18:16:20.111Z,52.16
2023-03-18T18:18:50.081Z,52.10
2023-03-18T18:21:24.716Z,52.04
2023-03-18T18:23:53.168Z,52.20
2023-03-18T18:26:22.946Z,52.33
2023-03-18T18:28:53.430Z,52.38
2023-03-18T18:31:22.841Z,52.26
2023-03-18T18:33:52.576Z,54.32
2023-03-18T18:36:22.708Z,54.36
2023-03-18T18:38:51.100Z,54.32
2023-03-18T18:41:19.346Z,54.20
2023-03-18T18:43:47.733Z,54.30
2023-03-18T18:46:16.454Z,54.46
2023-03-18T18:48:48.571Z,54.19
2023-03-18T18:51:18.383Z,54.07
2023-03-18T18:53:48.303Z,54.13
2023-03-18T18:56:19.975Z,54.26
2023-03-18T18:58:49.459Z,54.27
2023-03-18T19:01:20.192Z,54.47
2023-03-18T19:03:48.797Z,54.54
2023-03-18T19:06:26.777Z,54.28
2023-03-18T19:08:57.735Z,54.80
2023-03-18T19:11:26.791Z,54.87
2023-03-18T19:13:55.508Z,54.91
2023-03-18T19:16:31.778Z,54.50
2023-03-18T19:19:01.278Z,54.87
2023-03-18T19:21:29.534Z,55.02
2023-03-18T19:23:59.307Z,55.17
2023-03-18T19:26:27.632Z,55.19
2023-03-18T19:28:59.304Z,55.26
2023-03-18T19:31:31.368Z,55.33
2023-03-18T19:34:00.658Z,55.49
2023-03-18T19:36:31.523Z,55.45
2023-03-18T19:39:03.221Z,55.39
2023-03-18T19:41:31.991Z,55.58
2023-03-18T19:44:04.185Z,55.54
2023-03-18T19:46:38.648Z,55.35
2023-03-18T19:49:13.739Z,55.30
2023-03-18T19:51:42.701Z,55.78
2023-03-18T19:54:31.662Z,55.48
2023-03-18T19:57:02.472Z,55.76
2023-03-18T19:59:38.096Z,55.65
2023-03-18T20:02:18.840Z,55.22
2023-03-18T20:04:47.930Z,55.59
2023-03-18T20:07:16.942Z,55.65
2023-03-18T20:09:46.960Z,55.76
2023-03-18T20:12:25.102Z,55.55
2023-03-18T20:14:53.540Z,56.74
2023-03-18T20:17:36.262Z,56.26
2023-03-18T20:20:05.599Z,56.73
2023-03-18T20:22:37.070Z,56.93
2023-03-18T20:25:09.480Z,56.81
2023-03-18T20:27:37.789Z,57.02
2023-03-18T20:30:21.880Z,56.64
2023-03-18T20:32:50.244Z,56.95
2023-03-18T20:35:19.415Z,56.81
2023-03-18T20:37:48.384Z,56.74
2023-03-18T20:40:23.220Z,56.41
2023-03-18T20:42:52.776Z,56.71
2023-03-18T20:45:22.911Z,56.62
2023-03-18T20:47:51.770Z,56.84
2023-03-18T20:50:22.050Z,57.04
2023-03-18T20:52:50.787Z,56.97
2023-03-18T20:55:25.485Z,56.68
2023-03-18T20:57:54.486Z,57.01
2023-03-18T21:00:25.343Z,57.10
2023-03-18T21:02:55.404Z,57.23
2023-03-18T21:05:23.939Z,57.49
2023-03-18T21:07:52.467Z,57.75
2023-03-18T21:10:24.446Z,57.86
2023-03-18T21:12:53.922Z,57.77
2023-03-18T21:15:23.901Z,57.71
2023-03-18T21:17:52.660Z,57.61
2023-03-18T21:20:23.142Z,57.70
2023-03-18T21:22:52.237Z,57.94
2023-03-18T21:25:22.926Z,58.27
2023-03-18T21:27:53.641Z,58.55
2023-03-18T21:30:24.300Z,58.49
2023-03-18T21:32:52.688Z,58.47
2023-03-18T21:35:23.716Z,59.03
2023-03-18T21:37:52.414Z,58.90
2023-03-18T21:40:23.222Z,58.62
2023-03-18T21:42:53.223Z,58.70
2023-03-18T21:45:24.321Z,58.84
2023-03-18T21:47:53.250Z,58.83
2023-03-18T21:50:24.039Z,58.78
2023-03-18T21:52:52.979Z,58.96
2023-03-18T21:55:22.112Z,58.89
2023-03-18T21:57:50.544Z,58.93
2023-03-18T22:00:22.466Z,58.83
2023-03-18T22:02:51.066Z,58.92
2023-03-18T22:05:21.952Z,59.03
2023-03-18T22:07:51.030Z,59.03
2023-03-18T22:10:21.630Z,58.95
2023-03-18T22:12:50.434Z,59.03
2023-03-18T22:15:38.435Z,58.61
2023-03-18T22:18:07.852Z,58.99
2023-03-18T22:20:37.243Z,59.05
2023-03-18T22:23:13.856Z,58.55
2023-03-18T22:25:42.178Z,58.92
2023-03-18T22:28:11.715Z,58.98
2023-03-18T22:30:43.558Z,58.94
2023-03-18T22:33:20.051Z,58.60
2023-03-18T22:35:48.603Z,59.08
2023-03-18T22:38:18.157Z,59.22
2023-03-18T22:40:47.723Z,59.23
2023-03-18T22:43:28.899Z,58.79
2023-03-18T22:45:59.329Z,59.37
2023-03-18T22:48:27.822Z,59.38
2023-03-18T22:51:00.493Z,59.28
2023-03-18T22:53:31.868Z,59.50
2023-03-18T22:56:03.680Z,59.48
2023-03-18T22:58:32.003Z,59.48
2023-03-18T23:01:01.694Z,59.43
2023-03-18T23:03:32.316Z,59.51
2023-03-18T23:06:02.010Z,59.61
2023-03-18T23:08:30.509Z,59.74
2023-03-18T23:11:01.775Z,59.81
2023-03-18T23:13:34.521Z,59.99
2023-03-18T23:16:05.878Z,60.29
2023-03-18T23:18:34.522Z,60.28
2023-03-18T23:21:03.024Z,60.27
2023-03-18T23:23:31.760Z,60.41
2023-03-18T23:26:00.048Z,60.47
2023-03-18T23:28:28.403Z,61.04
2023-03-18T23:30:56.642Z,60.99
2023-03-18T23:33:26.512Z,60.77
2023-03-18T23:35:54.833Z,60.57
2023-03-18T23:38:23.053Z,60.48
2023-03-18T23:41:13.529Z,60.64
2023-03-18T23:44:02.156Z,60.55
2023-03-18T23:46:38.140Z,60.76
2023-03-18T23:49:10.574Z,60.70
2023-03-18T23:51:40.792Z,61.13
2023-03-18T23:54:21.869Z,60.86
2023-03-18T23:57:04.174Z,60.70
2023-03-18T23:59:51.784Z,60.57
